Estaciones Metar próximas

 

LELL - Sabadell, Spain
Distancia a la estación: E 18km
Actualizado: 27/05/2022 08:30
Despejado
Despejado
 Viento del O
Viento: O 7 km/h
Temperatura: 18°C
Rocío: 11°C
Humedad: 64%
Barómetro: 1019 hPa
Resumen: Despejado
Visibilidad: greater than 10 km
2022/05/27 06:30 LELL 270630Z 28004KT CAVOK 18/11 Q1019
LEBL - Barcelona Airpor, Spain
Distancia a la estación: SSE 33km
Actualizado: 27/05/2022 08:30
Despejado
Despejado
 Viento del NNO
Viento: NNO 19 km/h
Temperatura: 19°C
Rocío: 11°C
Humedad: 60%
Barómetro: 1018 hPa
Resumen: Despejado
Visibilidad: greater than 10 km
2022/05/27 06:30 LEBL 270630Z 34010KT 300V010 CAVOK 19/11 Q1018 NOSIG
LERS - Reus (civ/Mil), Spain
Distancia a la estación: SO 75km
Actualizado: 27/05/2022 08:30
Despejado
Despejado
 Viento del calm
Viento: Calma
Temperatura: 20°C
Rocío: 12°C
Humedad: 60%
Barómetro: 1018 hPa
Resumen: Despejado
Visibilidad: greater than 10 km
2022/05/27 06:30 LERS 270630Z 00000KT CAVOK 20/12 Q1018
 
LEGE - Gerona/Costa Bra, Spain
Distancia a la estación: ENE 83km
Actualizado: 27/05/2022 08:30
Nubes dispersas
Nubes dispersas
 Viento del NNO
Viento: NNO 6 km/h
Temperatura: 16°C
Rocío: 10°C
Humedad: 68%
Barómetro: 1019 hPa
Nubes: Nubes dispersas
Visibilidad: 10 km
Detalle Nubes: Nubes dispersas 2438 m
2022/05/27 06:30 LEGE 270630Z 34003KT 300V020 9999 FEW080 16/10 Q1019
LFMP - Perpignan/Rivesa, France
Distancia a la estación: NNE 155km
Actualizado: 27/05/2022 08:30
Despejado
Despejado
 Viento del NO
Viento: NO 28 km/h
Temperatura: 19°C
Rocío: 10°C
Humedad: 56%
Barómetro: 1021 hPa
Resumen: Despejado
Visibilidad: greater than 10 km
2022/05/27 06:30 LFMP 270630Z AUTO 32015KT CAVOK 19/10 Q1021 BECMG 32020G35KT
LFMK - Carcassonne/Salv, France
Distancia a la estación: N 191km
Actualizado: 27/05/2022 08:30
Muy nuboso
Muy nuboso
 Viento del O
Viento: O 22 km/h
Temperatura: 15°C
Rocío: 12°C
Humedad: 82%
Barómetro: 1025 hPa
Nubes: Muy nuboso
Visibilidad: 10 km
Detalle Nubes: Muy nuboso 1585 m
2022/05/27 06:30 LFMK 270630Z AUTO 27012KT 9999 BKN052 15/12 Q1025 TEMPO 27015G25KT
 
LEHC - Huesca-Pirineos, Spain
Distancia a la estación: ONO 193km
Actualizado: 27/05/2022 08:30
Despejado
Despejado
 Viento del ONO
Viento: ONO 11 km/h
Temperatura: 12°C
Rocío: 10°C
Humedad: 88%
Barómetro: 1022 hPa
Resumen: Despejado
Visibilidad: greater than 10 km
2022/05/27 06:30 LEHC 270630Z AUTO 29006KT 250V330 CAVOK 12/10 Q1022
LFMU - Beziers/Vias, France
Distancia a la estación: NNE 232km
Actualizado: 27/05/2022 08:30
Despejado
Despejado
 Viento del O
Viento: O 19 km/h
Temperatura: 18°C
Rocío: 12°C
Humedad: 68%
Resumen: Despejado
Visibilidad: greater than 10 km
2022/05/27 06:30 LFMU 270630Z AUTO 28010KT CAVOK 18/12 Q//// NOSIG
LEPA - Palma De Mallorc, Spain
Distancia a la estación: SSE 233km
Actualizado: 27/05/2022 08:30
Muy nuboso
Muy nuboso
 Viento del NNO
Viento: NNO 17 km/h, Racha: 39 km/h
Temperatura: 21°C
Rocío: 15°C
Humedad: 69%
Barómetro: 1018 hPa
Nubes: Muy nuboso
Visibilidad: 10 km
Detalle Nubes: Nubes dispersas 762 m
Muy nuboso 2103 m
2022/05/27 06:30 LEPA 270630Z 33009G21KT 270V360 9999 FEW025 BKN069 21/15 Q1018 NOSIG
 
LFBO - Toulouse/Blagnac, France
Distancia a la estación: N 236km
Actualizado: 27/05/2022 08:30
Cubierto
Cubierto
 Viento del ONO
Viento: ONO 15 km/h
Temperatura: 17°C
Rocío: 12°C
Humedad: 73%
Barómetro: 1025 hPa
Nubes: Cubierto
Visibilidad: 10 km
Detalle Nubes: Parcialmente nuboso 1311 m
Cubierto 1494 m
2022/05/27 06:30 LFBO 270630Z AUTO 30008KT 9999 SCT043 OVC049 17/12 Q1025 NOSIG
LFBT - Tarbes/Ossun, France
Distancia a la estación: NO 239km
Actualizado: 27/05/2022 08:30
Parcialmente nuboso
Parcialmente nuboso
 Viento del N
Viento: N 7 km/h
Temperatura: 15°C
Rocío: 14°C
Humedad: 94%
Barómetro: 1026 hPa
Nubes: Parcialmente nuboso
Visibilidad: 10 km
Detalle Nubes: Nubes dispersas 274 m
Parcialmente nuboso 549 m
2022/05/27 06:30 LFBT 270630Z AUTO 35004KT 9999 FEW009 SCT018 15/14 Q1026 BECMG BKN014 BKN030
LEZG - Zaragoza (mil/Ci, Spain
Distancia a la estación: O 242km
Actualizado: 27/05/2022 08:30
Despejado
Despejado
 Viento del ONO
Viento: ONO 28 km/h
Temperatura: 17°C
Rocío: 10°C
Humedad: 64%
Barómetro: 1023 hPa
Resumen: Despejado
Visibilidad: greater than 10 km
2022/05/27 06:30 LEZG 270630Z 30015KT 270V330 CAVOK 17/10 Q1023